createdAt,value
2018-10-03T00:00:25.136Z,33.9
2018-10-03T00:10:24.361Z,33.9
2018-10-03T00:20:23.582Z,33.9
2018-10-03T00:30:22.800Z,33.9
2018-10-03T00:40:22.023Z,34
2018-10-03T00:50:21.244Z,33.9
2018-10-03T01:00:20.465Z,33.9
2018-10-03T01:10:19.680Z,33.9
2018-10-03T01:20:18.906Z,34
2018-10-03T01:30:18.129Z,34
2018-10-03T01:40:17.347Z,34
2018-10-03T01:50:16.564Z,34
2018-10-03T02:00:15.795Z,34
2018-10-03T02:10:15.004Z,34.1
2018-10-03T02:20:14.231Z,34
2018-10-03T02:30:13.511Z,34.1
2018-10-03T02:40:12.671Z,34.1
2018-10-03T02:50:11.891Z,29
2018-10-03T03:00:11.106Z,28.6
2018-10-03T03:10:10.329Z,28.5
2018-10-03T03:20:09.554Z,28.4
2018-10-03T03:30:08.775Z,28.3
2018-10-03T03:40:08.004Z,28.4
2018-10-03T03:50:07.227Z,27.7
2018-10-03T04:00:06.440Z,26.9
2018-10-03T04:10:05.657Z,26.8
2018-10-03T04:20:04.879Z,26.8
2018-10-03T04:30:04.103Z,26.8
2018-10-03T04:40:03.374Z,26.8
2018-10-03T04:50:02.551Z,26.9
2018-10-03T05:00:01.775Z,26.9
2018-10-03T05:10:00.995Z,26.9
2018-10-03T05:20:00.217Z,27
2018-10-03T05:29:59.433Z,27.1
2018-10-03T05:39:58.660Z,27.1
2018-10-03T05:49:57.879Z,27.1
2018-10-03T05:59:57.109Z,27.2
2018-10-03T06:09:56.318Z,27.3
2018-10-03T06:19:55.537Z,27.4
2018-10-03T06:29:54.761Z,27.7
2018-10-03T06:39:53.983Z,28.1
2018-10-03T06:49:53.248Z,28.6
2018-10-03T06:59:52.419Z,29.3
2018-10-03T07:09:51.643Z,30.1
2018-10-03T07:19:50.861Z,30.9
2018-10-03T07:29:50.088Z,31.8
2018-10-03T07:39:49.304Z,32.6
2018-10-03T07:49:48.533Z,33.4
2018-10-03T07:59:47.755Z,34.3
2018-10-03T08:09:47.050Z,35.2
2018-10-03T08:19:46.201Z,36
2018-10-03T08:29:45.419Z,36.8
2018-10-03T08:39:44.643Z,37.5
2018-10-03T08:49:43.866Z,38.1
2018-10-03T08:59:43.089Z,38.7
2018-10-03T09:09:42.318Z,39.3
2018-10-03T09:19:41.541Z,39.9
2018-10-03T09:29:40.760Z,40.6
2018-10-03T09:39:40.045Z,41.3
2018-10-03T09:49:39.204Z,41.8
2018-10-03T09:59:38.433Z,41.8
2018-10-03T10:09:37.652Z,42.2
2018-10-03T10:19:36.880Z,42.2
2018-10-03T10:29:36.103Z,42.6
2018-10-03T10:39:35.327Z,43
2018-10-03T10:49:34.547Z,43.3
2018-10-03T10:59:33.808Z,43.8
2018-10-03T11:09:32.995Z,44.3
2018-10-03T11:19:32.219Z,44.9
2018-10-03T11:29:31.435Z,45.6
2018-10-03T11:39:30.657Z,46.3
2018-10-03T11:49:29.929Z,46.9
2018-10-03T11:59:29.145Z,47.5
2018-10-03T12:09:28.327Z,48
2018-10-03T12:19:27.549Z,48.6
2018-10-03T12:29:26.772Z,49.1
2018-10-03T12:39:25.995Z,49.8
2018-10-03T12:49:25.296Z,50.2
2018-10-03T12:59:24.437Z,50.5
2018-10-03T13:09:23.658Z,50.9
2018-10-03T13:19:22.878Z,51.4
2018-10-03T13:29:22.101Z,51.8
2018-10-03T13:39:21.320Z,52
2018-10-03T13:49:20.542Z,52.2
2018-10-03T13:59:19.762Z,52.3
2018-10-03T14:09:18.983Z,52.3
2018-10-03T14:19:18.205Z,52.4
2018-10-03T14:29:17.427Z,52.4
2018-10-03T14:39:16.655Z,52.5
2018-10-03T14:49:15.866Z,52.5
2018-10-03T14:59:15.094Z,52.5
2018-10-03T15:09:14.313Z,52.4
2018-10-03T15:19:13.528Z,52.4
2018-10-03T15:29:12.749Z,52.4
2018-10-03T15:39:11.968Z,52.4
2018-10-03T15:49:11.191Z,52.3
2018-10-03T15:59:10.413Z,52
2018-10-03T16:09:09.629Z,51.9
2018-10-03T16:19:08.858Z,51.8
2018-10-03T16:29:08.075Z,50.9
2018-10-03T16:39:07.446Z,49.9
2018-10-03T16:49:06.525Z,48.6
2018-10-03T16:59:05.749Z,46.9
2018-10-03T17:09:04.975Z,46.2
2018-10-03T17:19:04.195Z,46.1
2018-10-03T17:29:03.417Z,44.9
2018-10-03T17:39:02.642Z,44.6
2018-10-03T17:49:01.873Z,44.1
2018-10-03T17:59:01.113Z,43.6
2018-10-03T18:09:00.338Z,43.8
2018-10-03T18:18:59.611Z,43.7
2018-10-03T18:28:58.760Z,43.6
2018-10-03T18:38:57.984Z,43.5
2018-10-03T18:48:57.209Z,43.5
2018-10-03T18:58:56.428Z,41.6
2018-10-03T19:08:55.753Z,41.6
2018-10-03T19:18:54.881Z,41.1
2018-10-03T19:28:54.098Z,40.9
2018-10-03T19:38:53.323Z,38.9
2018-10-03T19:48:52.544Z,38.8
2018-10-03T19:58:51.771Z,38.9
2018-10-03T20:08:50.994Z,39
2018-10-03T20:18:50.213Z,39.1
2018-10-03T20:28:49.436Z,39.1
2018-10-03T20:38:48.659Z,39.1
2018-10-03T20:48:47.887Z,39.1
2018-10-03T20:58:47.108Z,39.1
2018-10-03T21:08:46.364Z,39.2
2018-10-03T21:18:45.552Z,39.2
2018-10-03T21:28:44.777Z,39.2
2018-10-03T21:38:43.995Z,39.2
2018-10-03T21:48:43.218Z,39.2
2018-10-03T21:58:42.439Z,39.1
2018-10-03T22:08:41.675Z,39.2
2018-10-03T22:18:40.880Z,39.1
2018-10-03T22:28:40.106Z,39.1
2018-10-03T22:38:39.395Z,39.1
2018-10-03T22:48:38.564Z,39.1
2018-10-03T22:58:37.784Z,39.1
2018-10-03T23:08:37.007Z,39.1
2018-10-03T23:18:36.232Z,39.1
2018-10-03T23:28:35.452Z,39.1
2018-10-03T23:38:34.672Z,39.1
2018-10-03T23:48:33.889Z,39
2018-10-03T23:58:33.117Z,39
